Time,TemperatureF,DewpointF,PressureIn,WindDirection,WindDirectionDegrees,WindSpeedMPH,WindSpeedGustMPH,Humidity,HourlyPrecipIn,Conditions,Clouds,dailyrainin,SoftwareType,DateUTC
2013-03-19 00:00:00,36.5,32.4,30.04,NE,53,0.0,0.0,85,0.00,,,0.00,VWS V13.01,2013-03-19 05:00:00,
2013-03-19 00:05:00,36.5,33.5,30.04,NE,53,0.0,0.0,89,0.00,,,0.00,VWS V13.01,2013-03-19 05:05:00,
2013-03-19 00:10:00,36.1,33.5,30.04,NE,53,0.0,0.0,90,0.00,,,0.00,VWS V13.01,2013-03-19 05:10:00,
2013-03-19 00:15:00,36.1,33.8,30.04,NE,38,0.0,0.0,91,0.00,,,0.00,VWS V13.01,2013-03-19 05:15:00,
2013-03-19 00:20:00,35.8,33.4,30.04,NE,47,0.0,0.0,91,0.00,,,0.00,VWS V13.01,2013-03-19 05:20:00,
2013-03-19 00:25:00,35.6,33.2,30.04,NE,47,0.0,0.0,91,0.00,,,0.00,VWS V13.01,2013-03-19 05:25:00,
2013-03-19 00:30:00,35.4,33.6,30.04,NE,47,0.0,0.0,93,0.00,,,0.00,VWS V13.01,2013-03-19 05:30:00,
2013-03-19 00:35:00,35.0,33.2,30.04,NNW,343,0.0,0.0,93,0.00,,,0.00,VWS V13.01,2013-03-19 05:35:00,
2013-03-19 00:40:00,34.9,33.3,30.04,NNW,343,0.0,0.0,94,0.00,,,0.00,VWS V13.01,2013-03-19 05:40:00,
2013-03-19 00:45:00,34.7,33.1,30.04,NNW,346,0.0,0.0,94,0.00,,,0.00,VWS V13.01,2013-03-19 05:45:00,
2013-03-19 00:50:00,34.7,33.1,30.04,North,351,0.0,0.0,94,0.00,,,0.00,VWS V13.01,2013-03-19 05:50:00,
2013-03-19 00:55:00,34.5,33.0,30.04,North,351,0.0,0.0,94,0.00,,,0.00,VWS V13.01,2013-03-19 05:55:00,
2013-03-19 01:00:00,34.3,33.0,30.04,North,351,0.0,0.0,95,0.00,,,0.00,VWS V13.01,2013-03-19 06:00:00,
2013-03-19 01:05:00,34.1,32.6,30.04,NNW,340,0.0,0.0,94,0.00,,,0.00,VWS V13.01,2013-03-19 06:05:00,
2013-03-19 01:10:00,34.1,32.9,30.04,North,5,0.0,0.0,95,0.00,,,0.00,VWS V13.01,2013-03-19 06:10:00,
2013-03-19 01:15:00,34.3,33.3,30.04,NNE,29,0.0,0.0,96,0.00,,,0.00,VWS V13.01,2013-03-19 06:15:00,
2013-03-19 01:20:00,34.3,33.0,30.04,NE,47,0.0,0.0,95,0.00,,,0.00,VWS V13.01,2013-03-19 06:20:00,
2013-03-19 01:25:00,34.1,32.6,30.04,NE,48,0.0,0.0,94,0.00,,,0.00,VWS V13.01,2013-03-19 06:25:00,
2013-03-19 01:30:00,34.1,33.1,30.04,NE,36,0.0,0.0,96,0.00,,,0.00,VWS V13.01,2013-03-19 06:30:00,
2013-03-19 01:35:00,34.0,32.7,30.04,NE,36,0.0,0.0,95,0.00,,,0.00,VWS V13.01,2013-03-19 06:35:00,
2013-03-19 01:40:00,33.8,32.8,30.04,NNE,23,0.0,0.0,96,0.00,,,0.00,VWS V13.01,2013-03-19 06:40:00,
2013-03-19 01:45:00,33.6,32.6,30.04,NNE,29,3.6,3.6,96,0.00,,,0.00,VWS V13.01,2013-03-19 06:45:00,
2013-03-19 01:50:00,33.4,32.7,30.04,NE,35,0.0,2.2,97,0.00,,,0.00,VWS V13.01,2013-03-19 06:50:00,
2013-03-19 01:55:00,33.2,32.5,30.04,NE,35,0.0,0.0,97,0.00,,,0.00,VWS V13.01,2013-03-19 06:55:00,
2013-03-19 02:00:00,33.1,32.3,30.01,NE,35,0.0,0.0,97,0.00,,,0.00,VWS V13.01,2013-03-19 07:00:00,
2013-03-19 02:05:00,33.1,32.3,30.01,NE,35,0.0,0.0,97,0.00,,,0.00,VWS V13.01,2013-03-19 07:05:00,
2013-03-19 02:10:00,33.2,32.5,30.01,North,3,0.0,0.0,97,0.00,,,0.00,VWS V13.01,2013-03-19 07:10:00,
2013-03-19 02:15:00,33.1,32.3,30.04,North,3,0.0,0.0,97,0.00,,,0.00,VWS V13.01,2013-03-19 07:15:00,
2013-03-19 02:20:00,32.9,32.1,30.04,NNW,330,0.0,0.0,97,0.00,,,0.00,VWS V13.01,2013-03-19 07:20:00,
2013-03-19 02:25:00,32.7,31.9,30.04,North,10,3.6,3.6,97,0.00,,,0.00,VWS V13.01,2013-03-19 07:25:00,
2013-03-19 02:30:00,32.7,32.2,30.01,NNE,19,2.7,3.1,98,0.00,,,0.00,VWS V13.01,2013-03-19 07:30:00,
2013-03-19 02:35:00,32.3,31.8,30.01,NE,50,0.0,0.0,98,0.00,,,0.00,VWS V13.01,2013-03-19 07:35:00,
2013-03-19 02:40:00,32.2,31.7,30.01,North,356,2.7,2.7,98,0.00,,,0.00,VWS V13.01,2013-03-19 07:40:00,
2013-03-19 02:45:00,32.0,31.5,30.01,East,92,0.0,0.0,98,0.00,,,0.00,VWS V13.01,2013-03-19 07:45:00,
2013-03-19 02:50:00,32.0,31.5,30.01,East,92,0.0,0.0,98,0.00,,,0.00,VWS V13.01,2013-03-19 07:50:00,
2013-03-19 02:55:00,32.0,31.5,30.01,East,92,0.0,0.0,98,0.00,,,0.00,VWS V13.01,2013-03-19 07:55:00,
2013-03-19 03:00:00,32.0,31.5,30.01,East,92,0.0,0.0,98,0.00,,,0.00,VWS V13.01,2013-03-19 08:00:00,
2013-03-19 03:05:00,32.0,31.5,30.01,SSE,165,0.0,0.0,98,0.00,,,0.00,VWS V13.01,2013-03-19 08:05:00,
2013-03-19 03:10:00,32.0,31.5,30.01,SSE,167,0.0,0.0,98,0.00,,,0.00,VWS V13.01,2013-03-19 08:10:00,
2013-03-19 03:14:00,32.0,31.5,30.01,SW,222,0.0,0.0,98,0.00,,,0.00,VWS V13.01,2013-03-19 08:14:00,
2013-03-19 03:19:00,32.0,31.5,30.01,SW,222,0.0,0.0,98,0.00,,,0.00,VWS V13.01,2013-03-19 08:19:00,
2013-03-19 03:24:00,32.0,31.5,30.01,WSW,256,0.0,0.0,98,0.00,,,0.00,VWS V13.01,2013-03-19 08:24:00,
2013-03-19 03:29:00,31.8,31.3,30.01,WNW,290,0.0,0.0,98,0.00,,,0.00,VWS V13.01,2013-03-19 08:29:00,
2013-03-19 03:34:00,31.6,31.4,30.01,NNW,339,0.0,0.0,99,0.00,,,0.00,VWS V13.01,2013-03-19 08:34:00,
2013-03-19 03:39:00,31.4,31.2,30.01,NNW,342,0.0,0.0,99,0.00,,,0.00,VWS V13.01,2013-03-19 08:39:00,
2013-03-19 03:44:00,31.3,31.0,30.01,NNW,342,0.0,0.0,99,0.00,,,0.00,VWS V13.01,2013-03-19 08:44:00,
2013-03-19 03:49:00,31.1,30.8,30.01,North,350,0.0,0.0,99,0.00,,,0.00,VWS V13.01,2013-03-19 08:49:00,
2013-03-19 03:54:00,30.9,30.6,30.01,North,353,0.0,0.0,99,0.00,,,0.00,VWS V13.01,2013-03-19 08:54:00,
2013-03-19 03:59:00,30.7,30.5,30.04,NNW,334,0.0,0.0,99,0.00,,,0.00,VWS V13.01,2013-03-19 08:59:00,
2013-03-19 04:04:00,31.1,31.1,30.04,NNW,334,0.0,0.0,100,0.00,,,0.00,VWS V13.01,2013-03-19 09:04:00,
2013-03-19 04:09:00,30.9,30.9,30.04,ESE,114,0.0,0.0,100,0.00,,,0.00,VWS V13.01,2013-03-19 09:09:00,
2013-03-19 04:14:00,30.9,30.9,30.04,ESE,119,0.0,0.0,100,0.00,,,0.00,VWS V13.01,2013-03-19 09:14:00,
2013-03-19 04:19:00,30.9,30.9,30.04,ESE,119,0.0,0.0,100,0.00,,,0.00,VWS V13.01,2013-03-19 09:19:00,
2013-03-19 04:24:00,31.1,31.1,30.04,NE,39,0.0,0.0,100,0.00,,,0.00,VWS V13.01,2013-03-19 09:24:00,
2013-03-19 04:29:00,31.1,31.1,30.04,NE,36,0.0,0.0,100,0.00,,,0.00,VWS V13.01,2013-03-19 09:29:00,
2013-03-19 04:34:00,31.1,31.1,30.04,NE,36,0.0,0.0,100,0.00,,,0.00,VWS V13.01,2013-03-19 09:34:00,
2013-03-19 04:39:00,31.1,31.1,30.04,NE,36,0.0,0.0,100,0.00,,,0.00,VWS V13.01,2013-03-19 09:39:00,
2013-03-19 04:44:00,31.1,31.1,30.04,NE,36,0.0,0.0,100,0.00,,,0.00,VWS V13.01,2013-03-19 09:44:00,
2013-03-19 04:49:00,31.1,31.1,30.04,NNE,21,4.0,4.0,100,0.00,,,0.00,VWS V13.01,2013-03-19 09:49:00,
2013-03-19 04:54:00,31.6,31.6,30.04,NNE,20,2.2,3.1,100,0.00,,,0.00,VWS V13.01,2013-03-19 09:54:00,
2013-03-19 04:59:00,31.8,31.8,30.01,NNE,30,0.0,0.0,100,0.00,,,0.00,VWS V13.01,2013-03-19 09:59:00,
2013-03-19 05:04:00,31.8,31.8,30.01,NNE,30,0.0,0.0,100,0.00,,,0.00,VWS V13.01,2013-03-19 10:04:00,
2013-03-19 05:09:00,32.0,32.0,30.01,NNE,30,0.0,0.0,100,0.00,,,0.00,VWS V13.01,2013-03-19 10:09:00,
2013-03-19 05:14:00,32.2,32.2,30.04,NNE,30,0.0,0.0,100,0.00,,,0.00,VWS V13.01,2013-03-19 10:14:00,
2013-03-19 05:19:00,32.2,32.2,30.04,NNE,30,0.0,0.0,100,0.00,,,0.00,VWS V13.01,2013-03-19 10:19:00,
2013-03-19 05:24:00,32.3,32.3,30.04,WSW,256,2.2,2.2,100,0.00,,,0.00,VWS V13.01,2013-03-19 10:24:00,
2013-03-19 05:29:00,32.5,32.5,30.04,WSW,246,0.0,0.0,100,0.00,,,0.00,VWS V13.01,2013-03-19 10:29:00,
2013-03-19 05:34:00,32.5,32.5,30.04,WSW,246,0.0,0.0,100,0.00,,,0.00,VWS V13.01,2013-03-19 10:34:00,
2013-03-19 05:39:00,32.7,32.7,30.04,WSW,246,0.0,0.0,100,0.00,,,0.00,VWS V13.01,2013-03-19 10:39:00,
2013-03-19 05:44:00,32.7,32.7,30.07,SSE,147,0.0,0.0,100,0.00,,,0.00,VWS V13.01,2013-03-19 10:44:00,
2013-03-19 05:49:00,32.9,32.9,30.07,SE,133,0.0,0.0,100,0.00,,,0.00,VWS V13.01,2013-03-19 10:49:00,
2013-03-19 05:54:00,32.7,32.7,30.07,SE,133,0.0,0.0,100,0.00,,,0.00,VWS V13.01,2013-03-19 10:54:00,
2013-03-19 05:59:00,32.9,32.9,30.07,North,357,0.0,0.0,100,0.00,,,0.00,VWS V13.01,2013-03-19 10:59:00,
2013-03-19 06:04:00,33.1,33.1,30.07,North,357,0.0,0.0,100,0.00,,,0.00,VWS V13.01,2013-03-19 11:04:00,
2013-03-19 06:09:00,33.1,33.1,30.07,NE,35,3.1,3.1,100,0.00,,,0.00,VWS V13.01,2013-03-19 11:09:00,
2013-03-19 06:14:00,33.2,33.2,30.04,NE,36,2.2,2.7,100,0.00,,,0.00,VWS V13.01,2013-03-19 11:14:00,
2013-03-19 06:19:00,33.2,33.2,30.04,NE,36,0.0,0.0,100,0.00,,,0.00,VWS V13.01,2013-03-19 11:19:00,
2013-03-19 06:24:00,33.4,33.4,30.04,NE,36,0.0,0.0,100,0.00,,,0.00,VWS V13.01,2013-03-19 11:24:00,
2013-03-19 06:29:00,33.6,33.6,30.07,NE,36,0.0,0.0,100,0.00,,,0.00,VWS V13.01,2013-03-19 11:29:00,
2013-03-19 06:34:00,33.8,33.8,30.07,NE,36,0.0,0.0,100,0.00,,,0.00,VWS V13.01,2013-03-19 11:34:00,
2013-03-19 06:39:00,34.1,34.1,30.07,South,175,3.6,3.6,100,0.00,,,0.00,VWS V13.01,2013-03-19 11:39:00,
2013-03-19 06:44:00,34.1,34.1,30.07,South,172,0.0,0.0,100,0.00,,,0.00,VWS V13.01,2013-03-19 11:44:00,
2013-03-19 06:49:00,34.1,34.1,30.07,South,172,0.0,0.0,100,0.00,,,0.00,VWS V13.01,2013-03-19 11:49:00,
2013-03-19 06:54:00,34.1,34.1,30.07,South,172,0.0,0.0,100,0.00,,,0.00,VWS V13.01,2013-03-19 11:54:00,
2013-03-19 06:59:00,34.3,34.3,30.07,South,190,0.0,0.0,100,0.00,,,0.00,VWS V13.01,2013-03-19 11:59:00,
2013-03-19 07:04:00,34.5,34.5,30.07,SW,231,2.2,3.1,100,0.00,,,0.00,VWS V13.01,2013-03-19 12:04:00,
2013-03-19 07:09:00,34.7,34.7,30.07,SSW,196,2.7,2.7,100,0.00,,,0.00,VWS V13.01,2013-03-19 12:09:00,
2013-03-19 07:14:00,35.0,35.0,30.07,SSW,195,0.0,0.0,100,0.00,,,0.00,VWS V13.01,2013-03-19 12:14:00,
2013-03-19 07:19:00,35.0,35.0,30.07,SSW,195,0.0,0.0,100,0.00,,,0.00,VWS V13.01,2013-03-19 12:19:00,
2013-03-19 07:24:00,35.2,35.2,30.07,SSW,195,0.0,0.0,100,0.00,,,0.00,VWS V13.01,2013-03-19 12:24:00,
2013-03-19 07:29:00,35.4,35.4,30.10,SSW,195,0.0,0.0,100,0.00,,,0.00,VWS V13.01,2013-03-19 12:29:00,
2013-03-19 07:34:00,35.6,35.6,30.10,West,264,0.0,0.0,100,0.00,,,0.00,VWS V13.01,2013-03-19 12:34:00,
2013-03-19 07:39:00,35.6,35.6,30.10,West,264,0.0,0.0,100,0.00,,,0.00,VWS V13.01,2013-03-19 12:39:00,
2013-03-19 07:44:00,35.8,35.8,30.10,West,264,0.0,0.0,100,0.00,,,0.00,VWS V13.01,2013-03-19 12:44:00,
2013-03-19 07:49:00,35.9,35.7,30.10,West,264,0.0,0.0,99,0.00,,,0.00,VWS V13.01,2013-03-19 12:49:00,
2013-03-19 07:54:00,35.9,35.7,30.10,West,264,0.0,0.0,99,0.00,,,0.00,VWS V13.01,2013-03-19 12:54:00,
2013-03-19 07:59:00,35.9,35.4,30.10,West,264,0.0,0.0,98,0.00,,,0.00,VWS V13.01,2013-03-19 12:59:00,
2013-03-19 08:04:00,36.1,35.6,30.10,West,263,0.0,0.0,98,0.00,,,0.00,VWS V13.01,2013-03-19 13:04:00,
2013-03-19 08:09:00,36.3,36.0,30.10,SW,220,0.0,0.0,99,0.00,,,0.00,VWS V13.01,2013-03-19 13:09:00,
2013-03-19 08:14:00,36.7,36.4,30.10,SW,219,0.0,0.0,99,0.00,,,0.00,VWS V13.01,2013-03-19 13:14:00,
2013-03-19 08:19:00,36.8,36.6,30.10,WSW,247,0.0,0.0,99,0.00,,,0.00,VWS V13.01,2013-03-19 13:19:00,
2013-03-19 08:24:00,37.2,37.0,30.10,WSW,251,0.0,0.0,99,0.00,,,0.00,VWS V13.01,2013-03-19 13:24:00,
2013-03-19 08:29:00,37.6,37.3,30.13,West,260,2.7,2.7,99,0.00,,,0.00,VWS V13.01,2013-03-19 13:29:00,
2013-03-19 08:34:00,37.9,37.7,30.13,West,260,0.0,0.0,99,0.00,,,0.00,VWS V13.01,2013-03-19 13:34:00,
2013-03-19 08:39:00,38.3,37.8,30.13,West,260,0.0,0.0,98,0.00,,,0.00,VWS V13.01,2013-03-19 13:39:00,
2013-03-19 08:44:00,38.6,38.4,30.13,West,260,0.0,0.0,99,0.00,,,0.00,VWS V13.01,2013-03-19 13:44:00,
2013-03-19 08:49:00,39.2,38.7,30.13,South,187,0.0,0.0,98,0.00,,,0.00,VWS V13.01,2013-03-19 13:49:00,
2013-03-19 08:54:00,39.7,38.9,30.13,South,187,0.0,0.0,97,0.00,,,0.00,VWS V13.01,2013-03-19 13:54:00,
2013-03-19 08:59:00,40.1,38.5,30.13,NNW,334,0.0,0.0,94,0.00,,,0.00,VWS V13.01,2013-03-19 13:59:00,
2013-03-19 09:04:00,40.8,39.2,30.13,NNE,29,2.7,3.6,94,0.00,,,0.00,VWS V13.01,2013-03-19 14:04:00,
2013-03-19 09:09:00,42.8,29.0,30.13,NNE,20,4.0,4.5,58,0.00,,,0.00,VWS V13.01,2013-03-19 14:09:00,
2013-03-19 09:14:00,44.6,29.0,30.13,NNE,29,3.6,5.4,54,0.00,,,0.00,VWS V13.01,2013-03-19 14:14:00,
2013-03-19 09:19:00,45.5,29.4,30.13,NE,49,2.7,5.4,53,0.00,,,0.00,VWS V13.01,2013-03-19 14:19:00,
2013-03-19 09:24:00,45.8,28.3,30.13,NNE,19,3.6,3.6,50,0.00,,,0.00,VWS V13.01,2013-03-19 14:24:00,
2013-03-19 09:29:00,46.0,28.4,30.16,NNE,25,3.1,3.1,50,0.00,,,0.00,VWS V13.01,2013-03-19 14:29:00,
2013-03-19 09:34:00,46.4,28.3,30.16,NE,37,5.8,5.8,49,0.00,,,0.00,VWS V13.01,2013-03-19 14:34:00,
2013-03-19 09:39:00,46.4,27.8,30.16,ENE,59,5.4,5.8,48,0.00,,,0.00,VWS V13.01,2013-03-19 14:39:00,
2013-03-19 09:44:00,46.7,28.1,30.16,NE,46,4.0,5.4,48,0.00,,,0.00,VWS V13.01,2013-03-19 14:44:00,
2013-03-19 09:49:00,46.9,28.3,30.16,NE,52,3.6,3.6,48,0.00,,,0.00,VWS V13.01,2013-03-19 14:49:00,
2013-03-19 09:54:00,47.1,28.4,30.16,NNE,18,3.1,3.1,48,0.00,,,0.00,VWS V13.01,2013-03-19 14:54:00,
2013-03-19 09:59:00,47.3,28.6,30.16,ENE,60,3.1,3.1,48,0.00,,,0.00,VWS V13.01,2013-03-19 14:59:00,
2013-03-19 10:04:00,47.5,28.2,30.16,North,2,0.0,0.0,47,0.00,,,0.00,VWS V13.01,2013-03-19 15:04:00,
2013-03-19 10:09:00,47.8,28.6,30.16,NNW,348,4.0,4.0,47,0.00,,,0.00,VWS V13.01,2013-03-19 15:09:00,
2013-03-19 10:14:00,48.0,28.8,30.16,North,4,0.0,0.0,47,0.00,,,0.00,VWS V13.01,2013-03-19 15:14:00,
2013-03-19 10:19:00,48.4,28.5,30.16,NE,35,2.7,5.4,46,0.00,,,0.00,VWS V13.01,2013-03-19 15:19:00,
2013-03-19 10:24:00,48.5,28.7,30.16,ESE,103,4.0,4.5,46,0.00,,,0.00,VWS V13.01,2013-03-19 15:24:00,
2013-03-19 10:29:00,48.9,29.0,30.16,ENE,75,8.3,8.3,46,0.00,,,0.00,VWS V13.01,2013-03-19 15:29:00,
2013-03-19 10:34:00,49.4,29.5,30.16,SE,125,8.3,8.3,46,0.00,,,0.00,VWS V13.01,2013-03-19 15:34:00,
2013-03-19 10:39:00,49.1,29.2,30.16,East,87,5.4,5.4,46,0.00,,,0.00,VWS V13.01,2013-03-19 15:39:00,
2013-03-19 10:44:00,49.8,29.9,30.16,NNW,344,3.6,3.6,46,0.00,,,0.00,VWS V13.01,2013-03-19 15:44:00,
2013-03-19 10:48:00,51.1,31.0,30.16,ENE,70,7.6,7.6,46,0.00,,,0.00,VWS V13.01,2013-03-19 15:48:00,
2013-03-19 10:53:00,50.9,30.9,30.16,SSE,153,3.1,3.1,46,0.00,,,0.00,VWS V13.01,2013-03-19 15:53:00,
2013-03-19 10:58:00,51.2,31.2,30.16,NE,54,3.6,4.0,46,0.00,,,0.00,VWS V13.01,2013-03-19 15:58:00,
2013-03-19 11:03:00,51.2,29.5,30.16,ESE,104,4.0,4.0,43,0.00,,,0.00,VWS V13.01,2013-03-19 16:03:00,
2013-03-19 11:08:00,51.2,29.5,30.16,ENE,58,4.9,5.8,43,0.00,,,0.00,VWS V13.01,2013-03-19 16:08:00,
2013-03-19 11:13:00,52.0,28.4,30.16,East,95,5.8,5.8,40,0.00,,,0.00,VWS V13.01,2013-03-19 16:13:00,
2013-03-19 11:18:00,52.3,30.5,30.16,NNE,31,3.6,3.6,43,0.00,,,0.00,VWS V13.01,2013-03-19 16:18:00,
2013-03-19 11:23:00,52.9,31.0,30.16,NE,50,3.6,3.6,43,0.00,,,0.00,VWS V13.01,2013-03-19 16:23:00,
2013-03-19 11:28:00,53.4,29.7,30.16,NE,54,3.6,3.6,40,0.00,,,0.00,VWS V13.01,2013-03-19 16:28:00,
2013-03-19 11:33:00,53.4,29.7,30.16,ENE,63,4.9,6.3,40,0.00,,,0.00,VWS V13.01,2013-03-19 16:33:00,
2013-03-19 11:38:00,53.2,29.5,30.16,ENE,67,4.9,7.6,40,0.00,,,0.00,VWS V13.01,2013-03-19 16:38:00,
2013-03-19 11:43:00,53.4,29.7,30.16,NNE,29,4.0,4.0,40,0.00,,,0.00,VWS V13.01,2013-03-19 16:43:00,
2013-03-19 11:48:00,54.3,30.5,30.16,NE,49,3.6,4.0,40,0.00,,,0.00,VWS V13.01,2013-03-19 16:48:00,
2013-03-19 11:53:00,54.1,28.4,30.16,NE,44,6.3,6.3,37,0.00,,,0.00,VWS V13.01,2013-03-19 16:53:00,
2013-03-19 11:58:00,53.9,30.2,30.16,East,86,4.0,4.0,40,0.00,,,0.00,VWS V13.01,2013-03-19 16:58:00,
2013-03-19 12:03:00,53.8,28.1,30.16,NE,35,6.3,6.3,37,0.00,,,0.00,VWS V13.01,2013-03-19 17:03:00,
2013-03-19 12:08:00,53.9,28.3,30.16,East,81,6.3,6.3,37,0.00,,,0.00,VWS V13.01,2013-03-19 17:08:00,
2013-03-19 12:13:00,53.9,28.3,30.16,North,11,6.3,6.3,37,0.00,,,0.00,VWS V13.01,2013-03-19 17:13:00,
2013-03-19 12:18:00,54.3,28.6,30.16,NNE,22,8.1,8.1,37,0.00,,,0.00,VWS V13.01,2013-03-19 17:18:00,
2013-03-19 12:23:00,54.7,28.9,30.16,ENE,66,5.8,6.3,37,0.00,,,0.00,VWS V13.01,2013-03-19 17:23:00,
2013-03-19 12:28:00,54.8,29.1,30.16,NE,47,4.9,4.9,37,0.00,,,0.00,VWS V13.01,2013-03-19 17:28:00,
2013-03-19 12:33:00,55.2,29.4,30.16,NE,44,7.6,8.7,37,0.00,,,0.00,VWS V13.01,2013-03-19 17:33:00,
2013-03-19 12:38:00,54.8,29.1,30.16,ENE,75,5.4,5.4,37,0.00,,,0.00,VWS V13.01,2013-03-19 17:38:00,
2013-03-19 12:43:00,55.2,29.4,30.16,ESE,106,4.0,7.6,37,0.00,,,0.00,VWS V13.01,2013-03-19 17:43:00,
2013-03-19 12:48:00,55.2,29.4,30.16,East,85,5.4,5.4,37,0.00,,,0.00,VWS V13.01,2013-03-19 17:48:00,
2013-03-19 12:53:00,55.0,29.2,30.16,NE,34,6.7,7.6,37,0.00,,,0.00,VWS V13.01,2013-03-19 17:53:00,
2013-03-19 12:58:00,55.2,29.4,30.16,NE,36,8.1,8.1,37,0.00,,,0.00,VWS V13.01,2013-03-19 17:58:00,
2013-03-19 13:03:00,55.7,29.9,30.16,NE,38,2.7,6.3,37,0.00,,,0.00,VWS V13.01,2013-03-19 18:03:00,
2013-03-19 13:08:00,56.1,30.2,30.16,ESE,115,6.3,6.3,37,0.00,,,0.00,VWS V13.01,2013-03-19 18:08:00,
2013-03-19 13:13:00,56.3,30.4,30.16,WNW,282,4.0,4.0,37,0.00,,,0.00,VWS V13.01,2013-03-19 18:13:00,
2013-03-19 13:18:00,56.5,30.5,30.16,SE,132,4.9,7.2,37,0.00,,,0.00,VWS V13.01,2013-03-19 18:18:00,
2013-03-19 13:23:00,56.5,30.5,30.16,ENE,77,4.9,4.9,37,0.00,,,0.00,VWS V13.01,2013-03-19 18:23:00,
2013-03-19 13:28:00,57.0,31.0,30.13,SE,125,7.6,8.7,37,0.00,,,0.00,VWS V13.01,2013-03-19 18:28:00,
2013-03-19 13:33:00,56.3,30.4,30.13,ESE,112,6.3,10.1,37,0.00,,,0.00,VWS V13.01,2013-03-19 18:33:00,
2013-03-19 13:39:00,56.1,30.2,30.13,SE,125,4.0,4.0,37,0.00,,,0.00,VWS V13.01,2013-03-19 18:39:00,
2013-03-19 13:44:00,56.1,30.2,30.13,East,79,8.3,8.7,37,0.00,,,0.00,VWS V13.01,2013-03-19 18:44:00,
2013-03-19 13:49:00,55.9,30.0,30.13,South,188,3.1,3.1,37,0.00,,,0.00,VWS V13.01,2013-03-19 18:49:00,
2013-03-19 13:54:00,56.3,31.7,30.13,SSE,159,3.1,5.4,39,0.00,,,0.00,VWS V13.01,2013-03-19 18:54:00,
2013-03-19 13:59:00,56.6,30.7,30.13,ESE,120,4.0,5.4,37,0.00,,,0.00,VWS V13.01,2013-03-19 18:59:00,
2013-03-19 14:04:00,56.5,31.8,30.13,SSW,200,10.1,10.1,39,0.00,,,0.00,VWS V13.01,2013-03-19 19:04:00,
2013-03-19 14:09:00,56.1,31.5,30.13,SSE,154,5.8,7.2,39,0.00,,,0.00,VWS V13.01,2013-03-19 19:09:00,
2013-03-19 14:13:00,56.3,31.7,30.13,ENE,58,5.8,8.7,39,0.00,,,0.00,VWS V13.01,2013-03-19 19:13:00,
2013-03-19 14:18:00,55.9,30.0,30.13,South,174,2.7,4.0,37,0.00,,,0.00,VWS V13.01,2013-03-19 19:18:00,
2013-03-19 14:23:00,56.1,31.5,30.13,SE,138,5.4,7.6,39,0.00,,,0.00,VWS V13.01,2013-03-19 19:23:00,
2013-03-19 14:28:00,56.5,30.5,30.13,SE,129,3.1,6.3,37,0.00,,,0.00,VWS V13.01,2013-03-19 19:28:00,
2013-03-19 14:33:00,56.5,30.5,30.13,East,87,5.8,6.3,37,0.00,,,0.00,VWS V13.01,2013-03-19 19:33:00,
2013-03-19 14:38:00,56.5,30.5,30.13,ESE,117,5.4,10.5,37,0.00,,,0.00,VWS V13.01,2013-03-19 19:38:00,
2013-03-19 14:43:00,56.6,30.7,30.13,SSE,147,6.3,6.3,37,0.00,,,0.00,VWS V13.01,2013-03-19 19:43:00,
2013-03-19 14:49:00,56.6,30.7,30.13,SSE,162,5.4,5.8,37,0.00,,,0.00,VWS V13.01,2013-03-19 19:49:00,
2013-03-19 14:53:00,57.2,31.2,30.13,SSW,193,7.6,7.6,37,0.00,,,0.00,VWS V13.01,2013-03-19 19:53:00,
2013-03-19 14:58:00,57.0,31.0,30.10,SSE,159,5.8,5.8,37,0.00,,,0.00,VWS V13.01,2013-03-19 19:58:00,
2013-03-19 15:03:00,57.0,31.0,30.10,ESE,122,3.1,3.6,37,0.00,,,0.00,VWS V13.01,2013-03-19 20:03:00,
2013-03-19 15:08:00,56.8,30.9,30.10,SSE,147,5.8,6.3,37,0.00,,,0.00,VWS V13.01,2013-03-19 20:08:00,
2013-03-19 15:13:00,56.5,30.5,30.10,South,188,6.3,6.3,37,0.00,,,0.00,VWS V13.01,2013-03-19 20:13:00,
2013-03-19 15:18:00,56.6,30.7,30.10,East,86,3.6,4.0,37,0.00,,,0.00,VWS V13.01,2013-03-19 20:18:00,
2013-03-19 15:23:00,56.8,30.9,30.10,SE,143,3.1,6.3,37,0.00,,,0.00,VWS V13.01,2013-03-19 20:23:00,
2013-03-19 15:28:00,56.6,30.7,30.10,ESE,114,4.0,5.8,37,0.00,,,0.00,VWS V13.01,2013-03-19 20:28:00,
2013-03-19 15:33:00,56.6,30.7,30.10,SE,129,2.7,4.0,37,0.00,,,0.00,VWS V13.01,2013-03-19 20:33:00,
2013-03-19 15:38:00,56.8,30.9,30.10,ESE,121,4.0,4.9,37,0.00,,,0.00,VWS V13.01,2013-03-19 20:38:00,
2013-03-19 15:43:00,57.0,31.0,30.10,SSE,167,5.8,8.1,37,0.00,,,0.00,VWS V13.01,2013-03-19 20:43:00,
2013-03-19 15:48:00,57.0,31.0,30.10,ESE,105,8.3,8.3,37,0.00,,,0.00,VWS V13.01,2013-03-19 20:48:00,
2013-03-19 15:53:00,56.8,30.9,30.10,ENE,71,2.7,4.9,37,0.00,,,0.00,VWS V13.01,2013-03-19 20:53:00,
2013-03-19 15:58:00,56.6,30.7,30.10,East,84,3.6,4.0,37,0.00,,,0.00,VWS V13.01,2013-03-19 20:58:00,
2013-03-19 16:03:00,56.8,30.9,30.10,ESE,122,5.8,5.8,37,0.00,,,0.00,VWS V13.01,2013-03-19 21:03:00,
2013-03-19 16:08:00,57.0,31.0,30.10,SSE,150,4.9,4.9,37,0.00,,,0.00,VWS V13.01,2013-03-19 21:08:00,
2013-03-19 16:13:00,57.5,31.5,30.10,ESE,122,5.4,5.4,37,0.00,,,0.00,VWS V13.01,2013-03-19 21:13:00,
2013-03-19 16:18:00,57.5,31.5,30.10,ESE,108,8.3,8.3,37,0.00,,,0.00,VWS V13.01,2013-03-19 21:18:00,
2013-03-19 16:23:00,57.4,31.3,30.10,SE,143,3.1,4.0,37,0.00,,,0.00,VWS V13.01,2013-03-19 21:23:00,
2013-03-19 16:28:00,57.5,31.5,30.10,SE,143,6.3,6.3,37,0.00,,,0.00,VWS V13.01,2013-03-19 21:28:00,
2013-03-19 16:33:00,57.5,31.5,30.10,East,91,3.1,4.0,37,0.00,,,0.00,VWS V13.01,2013-03-19 21:33:00,
2013-03-19 16:38:00,57.4,31.3,30.10,SE,134,5.4,5.8,37,0.00,,,0.00,VWS V13.01,2013-03-19 21:38:00,
2013-03-19 16:43:00,57.4,31.3,30.10,ESE,116,4.0,4.0,37,0.00,,,0.00,VWS V13.01,2013-03-19 21:43:00,
2013-03-19 16:48:00,57.2,31.2,30.10,SE,129,4.0,5.8,37,0.00,,,0.00,VWS V13.01,2013-03-19 21:48:00,
2013-03-19 16:53:00,57.2,31.2,30.10,ESE,109,0.0,2.7,37,0.00,,,0.00,VWS V13.01,2013-03-19 21:53:00,
2013-03-19 16:58:00,57.2,31.2,30.10,South,184,8.1,8.1,37,0.00,,,0.00,VWS V13.01,2013-03-19 21:58:00,
2013-03-19 17:03:00,57.2,31.2,30.10,South,178,5.4,7.6,37,0.00,,,0.00,VWS V13.01,2013-03-19 22:03:00,
2013-03-19 17:08:00,57.2,31.2,30.10,ESE,108,4.0,4.0,37,0.00,,,0.00,VWS V13.01,2013-03-19 22:08:00,
2013-03-19 17:13:00,57.2,31.2,30.10,SSE,162,2.2,3.6,37,0.00,,,0.00,VWS V13.01,2013-03-19 22:13:00,
2013-03-19 17:18:00,57.2,31.2,30.10,SSE,150,2.7,2.7,37,0.00,,,0.00,VWS V13.01,2013-03-19 22:18:00,
2013-03-19 17:23:00,57.2,31.2,30.10,SE,136,2.7,2.7,37,0.00,,,0.00,VWS V13.01,2013-03-19 22:23:00,
2013-03-19 17:28:00,57.0,31.0,30.10,SE,129,3.6,3.6,37,0.00,,,0.00,VWS V13.01,2013-03-19 22:28:00,
2013-03-19 17:33:00,56.8,30.9,30.10,SE,143,4.0,5.4,37,0.00,,,0.00,VWS V13.01,2013-03-19 22:33:00,
2013-03-19 17:38:00,56.6,30.7,30.10,SSE,150,3.1,4.0,37,0.00,,,0.00,VWS V13.01,2013-03-19 22:38:00,
2013-03-19 17:43:00,56.6,30.7,30.10,ESE,121,3.1,3.6,37,0.00,,,0.00,VWS V13.01,2013-03-19 22:43:00,
2013-03-19 17:48:00,56.6,30.7,30.10,ESE,115,3.1,3.1,37,0.00,,,0.00,VWS V13.01,2013-03-19 22:48:00,
2013-03-19 17:53:00,56.6,30.7,30.10,SE,127,2.2,2.7,37,0.00,,,0.00,VWS V13.01,2013-03-19 22:53:00,
2013-03-19 17:58:00,56.5,30.5,30.10,East,87,2.7,2.7,37,0.00,,,0.00,VWS V13.01,2013-03-19 22:58:00,
2013-03-19 18:03:00,56.5,30.5,30.10,ESE,121,2.7,3.6,37,0.00,,,0.00,VWS V13.01,2013-03-19 23:03:00,
2013-03-19 18:08:00,56.3,30.4,30.10,SE,128,3.6,3.6,37,0.00,,,0.00,VWS V13.01,2013-03-19 23:08:00,
2013-03-19 18:13:00,56.3,30.4,30.10,East,82,2.7,3.6,37,0.00,,,0.00,VWS V13.01,2013-03-19 23:13:00,
2013-03-19 18:18:00,56.1,30.2,30.10,SE,129,3.1,3.6,37,0.00,,,0.00,VWS V13.01,2013-03-19 23:18:00,
2013-03-19 18:23:00,56.1,30.2,30.10,ENE,69,2.2,2.2,37,0.00,,,0.00,VWS V13.01,2013-03-19 23:23:00,
2013-03-19 18:28:00,56.1,30.2,30.10,ENE,65,0.0,0.0,37,0.00,,,0.00,VWS V13.01,2013-03-19 23:28:00,
2013-03-19 18:33:00,55.9,30.0,30.10,ENE,65,0.0,0.0,37,0.00,,,0.00,VWS V13.01,2013-03-19 23:33:00,
2013-03-19 18:38:00,55.7,29.9,30.10,East,100,0.0,0.0,37,0.00,,,0.00,VWS V13.01,2013-03-19 23:38:00,
2013-03-19 18:43:00,55.6,29.7,30.10,East,81,0.0,0.0,37,0.00,,,0.00,VWS V13.01,2013-03-19 23:43:00,
2013-03-19 18:48:00,55.6,29.7,30.10,East,81,0.0,0.0,37,0.00,,,0.00,VWS V13.01,2013-03-19 23:48:00,
2013-03-19 18:53:00,55.4,29.6,30.10,East,81,0.0,0.0,37,0.00,,,0.00,VWS V13.01,2013-03-19 23:53:00,
2013-03-19 18:58:00,55.2,29.4,30.10,East,81,0.0,0.0,37,0.00,,,0.00,VWS V13.01,2013-03-19 23:58:00,
2013-03-19 19:03:00,54.8,29.1,30.10,East,81,0.0,0.0,37,0.00,,,0.00,VWS V13.01,2013-03-20 00:03:00,
2013-03-19 19:08:00,54.8,29.1,30.10,East,81,0.0,0.0,37,0.00,,,0.00,VWS V13.01,2013-03-20 00:08:00,
2013-03-19 19:13:00,54.7,28.9,30.10,East,81,0.0,0.0,37,0.00,,,0.00,VWS V13.01,2013-03-20 00:13:00,
2013-03-19 19:18:00,54.7,28.9,30.10,East,81,0.0,0.0,37,0.00,,,0.00,VWS V13.01,2013-03-20 00:18:00,
2013-03-19 19:23:00,54.7,28.9,30.10,East,81,0.0,0.0,37,0.00,,,0.00,VWS V13.01,2013-03-20 00:23:00,
2013-03-19 19:28:00,54.3,28.6,30.10,East,81,0.0,0.0,37,0.00,,,0.00,VWS V13.01,2013-03-20 00:28:00,
2013-03-19 19:33:00,53.9,28.3,30.10,East,81,0.0,0.0,37,0.00,,,0.00,VWS V13.01,2013-03-20 00:33:00,
2013-03-19 19:38:00,53.8,28.1,30.10,East,81,0.0,0.0,37,0.00,,,0.00,VWS V13.01,2013-03-20 00:38:00,
2013-03-19 19:43:00,53.2,28.3,30.10,East,81,0.0,0.0,38,0.00,,,0.00,VWS V13.01,2013-03-20 00:43:00,
2013-03-19 19:48:00,52.9,28.0,30.10,East,81,0.0,0.0,38,0.00,,,0.00,VWS V13.01,2013-03-20 00:48:00,
2013-03-19 19:53:00,52.5,28.9,30.10,East,81,0.0,0.0,40,0.00,,,0.00,VWS V13.01,2013-03-20 00:53:00,
2013-03-19 19:58:00,52.1,31.5,30.10,East,81,0.0,0.0,45,0.00,,,0.00,VWS V13.01,2013-03-20 00:58:00,
2013-03-19 20:03:00,51.6,31.5,30.10,East,81,0.0,0.0,46,0.00,,,0.00,VWS V13.01,2013-03-20 01:03:00,
2013-03-19 20:08:00,51.1,31.5,30.10,East,81,0.0,0.0,47,0.00,,,0.00,VWS V13.01,2013-03-20 01:08:00,
2013-03-19 20:13:00,50.5,31.6,30.10,East,81,0.0,0.0,48,0.00,,,0.00,VWS V13.01,2013-03-20 01:13:00,
2013-03-19 20:18:00,49.8,33.8,30.10,North,11,0.0,0.0,54,0.00,,,0.00,VWS V13.01,2013-03-20 01:18:00,
2013-03-19 20:23:00,48.9,32.1,30.10,North,7,0.0,0.0,52,0.00,,,0.00,VWS V13.01,2013-03-20 01:23:00,
2013-03-19 20:28:00,48.2,33.2,30.13,North,7,0.0,0.0,56,0.00,,,0.00,VWS V13.01,2013-03-20 01:28:00,
2013-03-19 20:33:00,47.8,33.3,30.13,North,8,0.0,0.0,57,0.00,,,0.00,VWS V13.01,2013-03-20 01:33:00,
2013-03-19 20:38:00,47.5,33.0,30.13,North,11,0.0,0.0,57,0.00,,,0.00,VWS V13.01,2013-03-20 01:38:00,
2013-03-19 20:43:00,47.1,32.7,30.13,North,11,0.0,0.0,57,0.00,,,0.00,VWS V13.01,2013-03-20 01:43:00,
2013-03-19 20:48:00,46.9,32.5,30.13,North,11,0.0,0.0,57,0.00,,,0.00,VWS V13.01,2013-03-20 01:48:00,
2013-03-19 20:53:00,46.7,32.3,30.13,North,11,0.0,0.0,57,0.00,,,0.00,VWS V13.01,2013-03-20 01:53:00,
2013-03-19 20:58:00,46.7,32.8,30.13,North,11,0.0,0.0,58,0.00,,,0.00,VWS V13.01,2013-03-20 01:58:00,
2013-03-19 21:03:00,46.4,32.8,30.13,North,11,0.0,0.0,59,0.00,,,0.00,VWS V13.01,2013-03-20 02:03:00,
2013-03-19 21:08:00,46.0,32.5,30.13,North,11,0.0,0.0,59,0.00,,,0.00,VWS V13.01,2013-03-20 02:08:00,
2013-03-19 21:13:00,45.7,33.0,30.13,NNE,28,0.0,0.0,61,0.00,,,0.00,VWS V13.01,2013-03-20 02:13:00,
2013-03-19 21:18:00,45.3,32.7,30.13,NNE,24,3.6,3.6,61,0.00,,,0.00,VWS V13.01,2013-03-20 02:18:00,
2013-03-19 21:23:00,45.1,32.5,30.13,North,360,2.7,2.7,61,0.00,,,0.00,VWS V13.01,2013-03-20 02:23:00,
2013-03-19 21:28:00,44.9,33.5,30.16,North,9,2.7,2.7,64,0.00,,,0.00,VWS V13.01,2013-03-20 02:28:00,
2013-03-19 21:33:00,44.6,32.0,30.16,NNE,22,2.7,2.7,61,0.00,,,0.00,VWS V13.01,2013-03-20 02:33:00,
2013-03-19 21:38:00,44.6,31.1,30.16,NNE,22,3.1,3.1,59,0.00,,,0.00,VWS V13.01,2013-03-20 02:38:00,
2013-03-19 21:43:00,44.6,30.7,30.16,NE,35,2.2,3.6,58,0.00,,,0.00,VWS V13.01,2013-03-20 02:43:00,
2013-03-19 21:48:00,44.9,30.2,30.16,NNE,29,3.6,3.6,56,0.00,,,0.00,VWS V13.01,2013-03-20 02:48:00,
2013-03-19 21:53:00,45.8,28.3,30.16,North,352,3.1,3.1,50,0.00,,,0.00,VWS V13.01,2013-03-20 02:53:00,
2013-03-19 21:58:00,46.4,28.3,30.16,North,6,3.1,3.1,49,0.00,,,0.00,VWS V13.01,2013-03-20 02:58:00,
2013-03-19 22:03:00,46.9,28.3,30.16,NNE,18,3.1,4.0,48,0.00,,,0.00,VWS V13.01,2013-03-20 03:03:00,
2013-03-19 22:08:00,47.6,28.4,30.16,NNE,15,3.1,3.6,47,0.00,,,0.00,VWS V13.01,2013-03-20 03:08:00,
2013-03-19 22:13:00,47.6,28.4,30.16,North,351,2.2,2.7,47,0.00,,,0.00,VWS V13.01,2013-03-20 03:13:00,
2013-03-19 22:18:00,48.0,28.2,30.16,North,356,3.1,3.1,46,0.00,,,0.00,VWS V13.01,2013-03-20 03:18:00,
2013-03-19 22:23:00,47.8,28.6,30.16,North,2,3.1,3.1,47,0.00,,,0.00,VWS V13.01,2013-03-20 03:23:00,
2013-03-19 22:28:00,47.8,28.1,30.16,NE,39,8.1,8.1,46,0.00,,,0.00,VWS V13.01,2013-03-20 03:28:00,
2013-03-19 22:33:00,48.2,28.4,30.16,NNE,12,4.0,7.6,46,0.00,,,0.00,VWS V13.01,2013-03-20 03:33:00,
2013-03-19 22:38:00,48.0,28.2,30.16,NNE,20,5.4,5.8,46,0.00,,,0.00,VWS V13.01,2013-03-20 03:38:00,
2013-03-19 22:43:00,48.0,28.2,30.19,NE,54,4.0,4.0,46,0.00,,,0.00,VWS V13.01,2013-03-20 03:43:00,
2013-03-19 22:48:00,47.8,28.1,30.19,ENE,57,6.3,6.3,46,0.00,,,0.00,VWS V13.01,2013-03-20 03:48:00,
2013-03-19 22:53:00,47.8,27.0,30.19,NE,42,5.4,5.4,44,0.00,,,0.00,VWS V13.01,2013-03-20 03:53:00,
2013-03-19 22:58:00,48.0,27.1,30.19,NNE,26,5.4,5.4,44,0.00,,,0.00,VWS V13.01,2013-03-20 03:58:00,
2013-03-19 23:00:00,48.0,27.1,30.19,NNE,26,2.7,4.9,44,0.00,,,0.00,VWS V13.01,2013-03-20 04:00:00,
2013-03-19 23:05:00,47.8,27.0,30.19,NE,46,4.9,4.9,44,0.00,,,0.00,VWS V13.01,2013-03-20 04:05:00,
2013-03-19 23:10:00,47.6,26.8,30.19,North,5,3.1,3.1,44,0.00,,,0.00,VWS V13.01,2013-03-20 04:10:00,
2013-03-19 23:15:00,47.6,26.8,30.19,NNE,14,3.6,5.4,44,0.00,,,0.00,VWS V13.01,2013-03-20 04:15:00,
2013-03-19 23:20:00,47.5,26.6,30.19,North,5,3.1,4.0,44,0.00,,,0.00,VWS V13.01,2013-03-20 04:20:00,
2013-03-19 23:25:00,47.3,26.5,30.19,NNE,12,3.1,3.1,44,0.00,,,0.00,VWS V13.01,2013-03-20 04:25:00,
2013-03-19 23:30:00,47.3,26.5,30.19,NNE,24,5.4,5.8,44,0.00,,,0.00,VWS V13.01,2013-03-20 04:30:00,
2013-03-19 23:35:00,47.1,26.3,30.19,NNE,25,4.5,4.5,44,0.00,,,0.00,VWS V13.01,2013-03-20 04:35:00,
2013-03-19 23:40:00,46.9,26.2,30.19,North,2,5.4,5.4,44,0.00,,,0.00,VWS V13.01,2013-03-20 04:40:00,
2013-03-19 23:45:00,46.7,27.1,30.19,NNE,29,4.0,4.0,46,0.00,,,0.00,VWS V13.01,2013-03-20 04:45:00,
2013-03-19 23:50:00,46.7,26.0,30.19,NE,44,6.3,6.3,44,0.00,,,0.00,VWS V13.01,2013-03-20 04:50:00,
2013-03-19 23:55:00,46.7,26.0,30.19,North,358,7.6,7.6,44,0.00,,,0.00,VWS V13.01,2013-03-20 04:55:00,